LFAQ 261500Z AUTO 34011KT 9999 FEW028 SCT045 OVC052 17/12 Q1018 TEMPO 4000 SHRA BKN020TCU

ElémentsDécodage
LFAQ Station météo située sur l'aérodrome de ALBERT Bray
261500Z émis le 26 du mois à 15h00 UTC
AUTO Bulletin édité par un automate
34011KT vent du 340°, 11 noeuds
9999 visibilité horizontale supérieure à 10 Km
FEW028 nuages rares (1/8 à 2/8) à 2800 pieds
SCT045 nuages épars (3/8 à 4/8) à 4500 pieds
OVC052 couverture nuageuse totale (8/8) à 5200 pieds
17/12 température 17°C, point de rosée 12°C
 soit une humidité relative de 72%
Q1018 la pression au niveau de la mer (QNH) est de 1018 hPa
TEMPO fluctuation temporaire prévue
4000 visibilité horizontale de 4000 mètres
SHRA averse(s) de pluie
BKN020TCU nuages morcelés (5/8 à 7/8) à 2000 pieds
 présence de cumulus congestus